sensor_id;sensor_type;location;lat;lon;timestamp;temperature;humidity
64501;DHT22;50874;24.150;-110.320;2023-03-25T00:00:55;23.40;94.40
64501;DHT22;50874;24.150;-110.320;2023-03-25T00:03:28;23.30;93.90
64501;DHT22;50874;24.150;-110.320;2023-03-25T00:05:56;23.30;92.50
64501;DHT22;50874;24.150;-110.320;2023-03-25T00:08:26;23.20;93.50
64501;DHT22;50874;24.150;-110.320;2023-03-25T00:10:58;22.90;93.70
64501;DHT22;50874;24.150;-110.320;2023-03-25T00:13:27;22.80;94.10
64501;DHT22;50874;24.150;-110.320;2023-03-25T00:16:08;22.60;93.70
64501;DHT22;50874;24.150;-110.320;2023-03-25T00:18:38;22.40;95.40
64501;DHT22;50874;24.150;-110.320;2023-03-25T00:21:06;22.50;96.40
64501;DHT22;50874;24.150;-110.320;2023-03-25T00:23:36;22.20;96.50
64501;DHT22;50874;24.150;-110.320;2023-03-25T00:26:04;22.10;97.20
64501;DHT22;50874;24.150;-110.320;2023-03-25T00:28:32;22.20;97.20
64501;DHT22;50874;24.150;-110.320;2023-03-25T00:31:02;22.10;97.50
64501;DHT22;50874;24.150;-110.320;2023-03-25T00:33:29;22.00;97.50
64501;DHT22;50874;24.150;-110.320;2023-03-25T00:35:56;22.10;98.00
64501;DHT22;50874;24.150;-110.320;2023-03-25T00:38:28;22.10;98.40
64501;DHT22;50874;24.150;-110.320;2023-03-25T00:41:14;22.00;96.90
64501;DHT22;50874;24.150;-110.320;2023-03-25T00:43:43;21.90;96.30
64501;DHT22;50874;24.150;-110.320;2023-03-25T00:46:10;21.80;97.20
64501;DHT22;50874;24.150;-110.320;2023-03-25T00:48:36;21.90;97.50
64501;DHT22;50874;24.150;-110.320;2023-03-25T00:51:03;21.80;97.40
64501;DHT22;50874;24.150;-110.320;2023-03-25T00:53:35;21.80;96.80
64501;DHT22;50874;24.150;-110.320;2023-03-25T00:56:05;21.50;96.80
64501;DHT22;50874;24.150;-110.320;2023-03-25T00:58:32;21.10;97.20
64501;DHT22;50874;24.150;-110.320;2023-03-25T01:00:58;21.00;97.50
64501;DHT22;50874;24.150;-110.320;2023-03-25T01:03:26;20.80;96.90
64501;DHT22;50874;24.150;-110.320;2023-03-25T01:05:54;20.90;96.90
64501;DHT22;50874;24.150;-110.320;2023-03-25T01:08:22;20.80;96.00
64501;DHT22;50874;24.150;-110.320;2023-03-25T01:10:53;20.70;97.00
64501;DHT22;50874;24.150;-110.320;2023-03-25T01:13:20;20.70;97.00
64501;DHT22;50874;24.150;-110.320;2023-03-25T01:15:47;20.60;96.10
64501;DHT22;50874;24.150;-110.320;2023-03-25T01:18:14;20.60;95.60
64501;DHT22;50874;24.150;-110.320;2023-03-25T01:20:40;20.60;94.00
64501;DHT22;50874;24.150;-110.320;2023-03-25T01:23:07;20.50;94.40
64501;DHT22;50874;24.150;-110.320;2023-03-25T01:25:35;20.50;93.50
64501;DHT22;50874;24.150;-110.320;2023-03-25T01:28:02;20.50;92.40
64501;DHT22;50874;24.150;-110.320;2023-03-25T01:30:29;20.30;92.30
64501;DHT22;50874;24.150;-110.320;2023-03-25T01:32:55;20.30;92.10
64501;DHT22;50874;24.150;-110.320;2023-03-25T01:35:22;20.20;92.20
64501;DHT22;50874;24.150;-110.320;2023-03-25T01:37:48;20.10;91.80
64501;DHT22;50874;24.150;-110.320;2023-03-25T01:40:19;20.10;91.90
64501;DHT22;50874;24.150;-110.320;2023-03-25T01:42:48;20.10;91.60
64501;DHT22;50874;24.150;-110.320;2023-03-25T01:45:20;20.10;91.90
64501;DHT22;50874;24.150;-110.320;2023-03-25T01:47:50;20.10;92.40
64501;DHT22;50874;24.150;-110.320;2023-03-25T01:50:19;20.10;93.10
64501;DHT22;50874;24.150;-110.320;2023-03-25T01:52:49;20.00;93.80
64501;DHT22;50874;24.150;-110.320;2023-03-25T01:55:17;19.90;94.40
64501;DHT22;50874;24.150;-110.320;2023-03-25T01:57:50;19.80;94.40
64501;DHT22;50874;24.150;-110.320;2023-03-25T02:00:19;19.70;94.90
64501;DHT22;50874;24.150;-110.320;2023-03-25T02:02:46;19.60;95.40
64501;DHT22;50874;24.150;-110.320;2023-03-25T02:05:29;19.60;95.60
64501;DHT22;50874;24.150;-110.320;2023-03-25T02:07:58;19.50;96.20
64501;DHT22;50874;24.150;-110.320;2023-03-25T02:10:28;19.50;96.70
64501;DHT22;50874;24.150;-110.320;2023-03-25T02:12:55;19.40;97.10
64501;DHT22;50874;24.150;-110.320;2023-03-25T02:15:22;19.40;97.70
64501;DHT22;50874;24.150;-110.320;2023-03-25T02:18:03;19.40;98.20
64501;DHT22;50874;24.150;-110.320;2023-03-25T02:29:43;19.30;99.30
64501;DHT22;50874;24.150;-110.320;2023-03-25T02:32:59;19.20;99.60
64501;DHT22;50874;24.150;-110.320;2023-03-25T02:44:04;19.00;99.90
64501;DHT22;50874;24.150;-110.320;2023-03-25T02:46:33;18.90;99.90
64501;DHT22;50874;24.150;-110.320;2023-03-25T02:49:05;18.90;99.90
64501;DHT22;50874;24.150;-110.320;2023-03-25T02:51:40;18.80;99.90
64501;DHT22;50874;24.150;-110.320;2023-03-25T02:54:13;18.80;99.90
64501;DHT22;50874;24.150;-110.320;2023-03-25T02:56:43;18.70;99.90
64501;DHT22;50874;24.150;-110.320;2023-03-25T02:59:13;18.70;99.90
64501;DHT22;50874;24.150;-110.320;2023-03-25T03:01:42;18.70;99.90
64501;DHT22;50874;24.150;-110.320;2023-03-25T03:04:09;18.70;99.90
64501;DHT22;50874;24.150;-110.320;2023-03-25T03:06:39;18.70;99.90
64501;DHT22;50874;24.150;-110.320;2023-03-25T03:09:16;18.70;99.90
64501;DHT22;50874;24.150;-110.320;2023-03-25T03:14:59;18.70;99.90
64501;DHT22;50874;24.150;-110.320;2023-03-25T03:18:12;18.70;99.90
64501;DHT22;50874;24.150;-110.320;2023-03-25T03:20:39;18.70;99.90
64501;DHT22;50874;24.150;-110.320;2023-03-25T03:23:14;18.60;99.90
64501;DHT22;50874;24.150;-110.320;2023-03-25T03:25:56;18.60;99.90
64501;DHT22;50874;24.150;-110.320;2023-03-25T03:29:10;18.60;99.90
64501;DHT22;50874;24.150;-110.320;2023-03-25T03:31:24;18.60;99.90
64501;DHT22;50874;24.150;-110.320;2023-03-25T03:33:58;18.60;99.90
64501;DHT22;50874;24.150;-110.320;2023-03-25T03:36:36;18.60;99.90
64501;DHT22;50874;24.150;-110.320;2023-03-25T03:41:48;18.50;99.90
64501;DHT22;50874;24.150;-110.320;2023-03-25T03:44:19;18.50;99.90
64501;DHT22;50874;24.150;-110.320;2023-03-25T03:46:52;18.50;99.90
64501;DHT22;50874;24.150;-110.320;2023-03-25T03:49:24;18.60;99.90
64501;DHT22;50874;24.150;-110.320;2023-03-25T03:52:09;18.50;99.90
64501;DHT22;50874;24.150;-110.320;2023-03-25T03:54:46;18.50;99.90
64501;DHT22;50874;24.150;-110.320;2023-03-25T03:57:23;18.50;99.90
64501;DHT22;50874;24.150;-110.320;2023-03-25T04:00:04;18.40;99.90
64501;DHT22;50874;24.150;-110.320;2023-03-25T04:05:10;18.30;99.90
64501;DHT22;50874;24.150;-110.320;2023-03-25T04:08:00;18.30;99.90
64501;DHT22;50874;24.150;-110.320;2023-03-25T04:10:43;18.30;99.90
64501;DHT22;50874;24.150;-110.320;2023-03-25T04:13:13;18.30;99.90
64501;DHT22;50874;24.150;-110.320;2023-03-25T04:15:42;18.30;99.90
64501;DHT22;50874;24.150;-110.320;2023-03-25T04:18:08;18.30;99.90
64501;DHT22;50874;24.150;-110.320;2023-03-25T04:20:35;18.30;99.90
64501;DHT22;50874;24.150;-110.320;2023-03-25T04:23:02;18.30;99.90
64501;DHT22;50874;24.150;-110.320;2023-03-25T04:25:34;18.20;99.90
64501;DHT22;50874;24.150;-110.320;2023-03-25T04:28:01;18.20;99.90
64501;DHT22;50874;24.150;-110.320;2023-03-25T04:30:28;18.20;99.90
64501;DHT22;50874;24.150;-110.320;2023-03-25T04:32:56;18.20;99.90
64501;DHT22;50874;24.150;-110.320;2023-03-25T04:35:22;18.20;99.90
64501;DHT22;50874;24.150;-110.320;2023-03-25T04:37:50;18.10;99.90
64501;DHT22;50874;24.150;-110.320;2023-03-25T04:40:19;18.10;99.90
64501;DHT22;50874;24.150;-110.320;2023-03-25T04:42:46;18.10;99.90
64501;DHT22;50874;24.150;-110.320;2023-03-25T04:45:14;18.10;99.90
64501;DHT22;50874;24.150;-110.320;2023-03-25T04:47:43;18.10;99.90
64501;DHT22;50874;24.150;-110.320;2023-03-25T04:50:26;18.20;99.90
64501;DHT22;50874;24.150;-110.320;2023-03-25T04:52:54;18.30;99.90
64501;DHT22;50874;24.150;-110.320;2023-03-25T04:55:25;18.30;99.90
64501;DHT22;50874;24.150;-110.320;2023-03-25T04:57:53;18.30;99.90
64501;DHT22;50874;24.150;-110.320;2023-03-25T05:00:22;18.30;99.90
64501;DHT22;50874;24.150;-110.320;2023-03-25T05:02:51;18.20;99.90
64501;DHT22;50874;24.150;-110.320;2023-03-25T05:05:21;18.10;99.90
64501;DHT22;50874;24.150;-110.320;2023-03-25T05:07:49;18.10;99.90
64501;DHT22;50874;24.150;-110.320;2023-03-25T05:10:26;18.00;99.90
64501;DHT22;50874;24.150;-110.320;2023-03-25T05:13:00;18.00;99.90
64501;DHT22;50874;24.150;-110.320;2023-03-25T05:15:27;18.00;99.90
64501;DHT22;50874;24.150;-110.320;2023-03-25T05:17:55;17.90;99.90
64501;DHT22;50874;24.150;-110.320;2023-03-25T05:20:21;18.00;99.90
64501;DHT22;50874;24.150;-110.320;2023-03-25T05:22:49;17.90;99.90
64501;DHT22;50874;24.150;-110.320;2023-03-25T05:25:18;17.90;99.90
64501;DHT22;50874;24.150;-110.320;2023-03-25T05:27:47;17.90;99.90
64501;DHT22;50874;24.150;-110.320;2023-03-25T05:30:14;17.90;99.90
64501;DHT22;50874;24.150;-110.320;2023-03-25T05:32:41;18.00;99.90
64501;DHT22;50874;24.150;-110.320;2023-03-25T05:35:13;18.00;99.90
64501;DHT22;50874;24.150;-110.320;2023-03-25T05:37:39;18.00;99.90
64501;DHT22;50874;24.150;-110.320;2023-03-25T05:40:07;17.90;99.90
64501;DHT22;50874;24.150;-110.320;2023-03-25T05:42:34;17.90;99.90
64501;DHT22;50874;24.150;-110.320;2023-03-25T05:45:02;17.90;99.90
64501;DHT22;50874;24.150;-110.320;2023-03-25T05:47:29;17.90;99.90
64501;DHT22;50874;24.150;-110.320;2023-03-25T05:49:55;17.90;99.90
64501;DHT22;50874;24.150;-110.320;2023-03-25T05:52:22;17.80;99.90
64501;DHT22;50874;24.150;-110.320;2023-03-25T05:54:49;17.80;99.90
64501;DHT22;50874;24.150;-110.320;2023-03-25T05:57:17;17.70;99.90
64501;DHT22;50874;24.150;-110.320;2023-03-25T05:59:43;17.80;99.90
64501;DHT22;50874;24.150;-110.320;2023-03-25T06:02:14;17.70;99.90
64501;DHT22;50874;24.150;-110.320;2023-03-25T06:04:42;17.60;99.90
64501;DHT22;50874;24.150;-110.320;2023-03-25T06:07:12;17.60;99.90
64501;DHT22;50874;24.150;-110.320;2023-03-25T06:09:45;17.60;99.90
64501;DHT22;50874;24.150;-110.320;2023-03-25T06:12:16;17.60;99.90
64501;DHT22;50874;24.150;-110.320;2023-03-25T06:14:46;17.60;99.90
64501;DHT22;50874;24.150;-110.320;2023-03-25T06:17:15;17.50;99.90
64501;DHT22;50874;24.150;-110.320;2023-03-25T06:19:44;17.50;99.90
64501;DHT22;50874;24.150;-110.320;2023-03-25T06:22:11;17.50;99.90
64501;DHT22;50874;24.150;-110.320;2023-03-25T06:24:38;17.50;99.90
64501;DHT22;50874;24.150;-110.320;2023-03-25T06:27:12;17.50;99.90
64501;DHT22;50874;24.150;-110.320;2023-03-25T06:29:39;17.40;99.90
64501;DHT22;50874;24.150;-110.320;2023-03-25T06:32:11;17.30;99.90
64501;DHT22;50874;24.150;-110.320;2023-03-25T06:34:38;17.30;99.90
64501;DHT22;50874;24.150;-110.320;2023-03-25T06:37:07;17.30;99.90
64501;DHT22;50874;24.150;-110.320;2023-03-25T06:39:34;17.20;99.90
64501;DHT22;50874;24.150;-110.320;2023-03-25T06:42:04;17.20;99.90
64501;DHT22;50874;24.150;-110.320;2023-03-25T06:44:31;17.20;99.90
64501;DHT22;50874;24.150;-110.320;2023-03-25T06:46:57;17.10;99.90
64501;DHT22;50874;24.150;-110.320;2023-03-25T06:49:25;17.20;99.90
64501;DHT22;50874;24.150;-110.320;2023-03-25T06:51:51;17.30;99.90
64501;DHT22;50874;24.150;-110.320;2023-03-25T06:54:18;17.20;99.90
64501;DHT22;50874;24.150;-110.320;2023-03-25T06:56:44;17.20;99.90
64501;DHT22;50874;24.150;-110.320;2023-03-25T06:59:11;17.30;99.90
64501;DHT22;50874;24.150;-110.320;2023-03-25T07:01:37;17.30;99.90
64501;DHT22;50874;24.150;-110.320;2023-03-25T07:04:04;17.40;99.90
64501;DHT22;50874;24.150;-110.320;2023-03-25T07:06:30;17.40;99.90
64501;DHT22;50874;24.150;-110.320;2023-03-25T07:08:57;17.30;99.90
64501;DHT22;50874;24.150;-110.320;2023-03-25T07:11:28;17.20;99.90
64501;DHT22;50874;24.150;-110.320;2023-03-25T07:13:55;17.20;99.90
64501;DHT22;50874;24.150;-110.320;2023-03-25T07:16:22;17.10;99.90
64501;DHT22;50874;24.150;-110.320;2023-03-25T07:18:49;17.00;99.90
64501;DHT22;50874;24.150;-110.320;2023-03-25T07:21:17;16.90;99.90
64501;DHT22;50874;24.150;-110.320;2023-03-25T07:23:43;16.90;99.90
64501;DHT22;50874;24.150;-110.320;2023-03-25T07:26:10;16.80;99.90
64501;DHT22;50874;24.150;-110.320;2023-03-25T07:28:38;16.90;99.90
64501;DHT22;50874;24.150;-110.320;2023-03-25T07:31:10;17.10;99.90
64501;DHT22;50874;24.150;-110.320;2023-03-25T07:33:37;17.10;99.90
64501;DHT22;50874;24.150;-110.320;2023-03-25T07:36:05;17.30;99.90
64501;DHT22;50874;24.150;-110.320;2023-03-25T07:38:32;17.50;99.90
64501;DHT22;50874;24.150;-110.320;2023-03-25T07:41:03;17.70;99.90
64501;DHT22;50874;24.150;-110.320;2023-03-25T07:43:30;17.70;99.90
64501;DHT22;50874;24.150;-110.320;2023-03-25T07:45:58;17.70;99.90
64501;DHT22;50874;24.150;-110.320;2023-03-25T07:48:27;17.90;99.90
64501;DHT22;50874;24.150;-110.320;2023-03-25T07:50:53;17.90;99.90
64501;DHT22;50874;24.150;-110.320;2023-03-25T07:53:22;17.80;99.90
64501;DHT22;50874;24.150;-110.320;2023-03-25T07:55:49;17.70;99.90
64501;DHT22;50874;24.150;-110.320;2023-03-25T07:58:18;17.70;99.90
64501;DHT22;50874;24.150;-110.320;2023-03-25T08:00:45;17.60;99.90
64501;DHT22;50874;24.150;-110.320;2023-03-25T08:03:13;17.60;99.90
64501;DHT22;50874;24.150;-110.320;2023-03-25T08:05:46;17.60;99.90
64501;DHT22;50874;24.150;-110.320;2023-03-25T08:08:14;17.70;99.90
64501;DHT22;50874;24.150;-110.320;2023-03-25T08:10:41;17.80;99.90
64501;DHT22;50874;24.150;-110.320;2023-03-25T08:13:08;17.80;99.90
64501;DHT22;50874;24.150;-110.320;2023-03-25T08:15:35;17.70;99.90
64501;DHT22;50874;24.150;-110.320;2023-03-25T08:18:01;17.70;99.90
64501;DHT22;50874;24.150;-110.320;2023-03-25T08:20:30;17.70;99.90
64501;DHT22;50874;24.150;-110.320;2023-03-25T08:22:56;17.70;99.90
64501;DHT22;50874;24.150;-110.320;2023-03-25T08:25:23;17.60;99.90
64501;DHT22;50874;24.150;-110.320;2023-03-25T08:27:50;17.60;99.90
64501;DHT22;50874;24.150;-110.320;2023-03-25T08:30:17;17.50;99.90
64501;DHT22;50874;24.150;-110.320;2023-03-25T08:32:43;17.40;99.90
64501;DHT22;50874;24.150;-110.320;2023-03-25T08:35:22;17.40;99.90
64501;DHT22;50874;24.150;-110.320;2023-03-25T08:37:49;17.40;99.90
64501;DHT22;50874;24.150;-110.320;2023-03-25T08:40:16;17.30;99.90
64501;DHT22;50874;24.150;-110.320;2023-03-25T08:42:43;17.50;98.80
64501;DHT22;50874;24.150;-110.320;2023-03-25T08:45:10;17.40;98.50
64501;DHT22;50874;24.150;-110.320;2023-03-25T08:47:37;17.50;98.10
64501;DHT22;50874;24.150;-110.320;2023-03-25T08:50:04;17.40;97.80
64501;DHT22;50874;24.150;-110.320;2023-03-25T08:52:31;17.30;97.90
64501;DHT22;50874;24.150;-110.320;2023-03-25T08:54:57;17.20;97.50
64501;DHT22;50874;24.150;-110.320;2023-03-25T08:57:24;17.10;97.70
64501;DHT22;50874;24.150;-110.320;2023-03-25T08:59:51;17.00;97.70
64501;DHT22;50874;24.150;-110.320;2023-03-25T09:02:17;16.90;98.00
64501;DHT22;50874;24.150;-110.320;2023-03-25T09:04:46;16.80;98.10
64501;DHT22;50874;24.150;-110.320;2023-03-25T09:07:13;16.60;97.60
64501;DHT22;50874;24.150;-110.320;2023-03-25T09:09:40;16.40;97.80
64501;DHT22;50874;24.150;-110.320;2023-03-25T09:12:07;16.30;98.00
64501;DHT22;50874;24.150;-110.320;2023-03-25T09:14:34;16.20;98.20
64501;DHT22;50874;24.150;-110.320;2023-03-25T09:17:01;16.00;98.40
64501;DHT22;50874;24.150;-110.320;2023-03-25T09:19:28;15.90;97.30
64501;DHT22;50874;24.150;-110.320;2023-03-25T09:21:55;15.90;95.40
64501;DHT22;50874;24.150;-110.320;2023-03-25T09:24:21;16.10;94.60
64501;DHT22;50874;24.150;-110.320;2023-03-25T09:26:49;16.70;93.10
64501;DHT22;50874;24.150;-110.320;2023-03-25T09:29:15;17.10;92.20
64501;DHT22;50874;24.150;-110.320;2023-03-25T09:31:42;17.20;91.90
64501;DHT22;50874;24.150;-110.320;2023-03-25T09:34:08;17.20;91.70
64501;DHT22;50874;24.150;-110.320;2023-03-25T09:36:35;17.60;91.30
64501;DHT22;50874;24.150;-110.320;2023-03-25T09:39:02;17.80;90.90
64501;DHT22;50874;24.150;-110.320;2023-03-25T09:44:32;18.00;90.30
64501;DHT22;50874;24.150;-110.320;2023-03-25T09:47:01;18.00;90.50
64501;DHT22;50874;24.150;-110.320;2023-03-25T09:49:49;18.20;90.20
64501;DHT22;50874;24.150;-110.320;2023-03-25T09:52:34;18.20;90.10
64501;DHT22;50874;24.150;-110.320;2023-03-25T09:55:08;18.10;90.40
64501;DHT22;50874;24.150;-110.320;2023-03-25T09:57:44;18.10;90.70
64501;DHT22;50874;24.150;-110.320;2023-03-25T10:00:17;18.00;91.20
64501;DHT22;50874;24.150;-110.320;2023-03-25T10:02:56;18.10;90.80
64501;DHT22;50874;24.150;-110.320;2023-03-25T10:14:04;18.00;90.70
64501;DHT22;50874;24.150;-110.320;2023-03-25T10:22:05;18.20;91.40
64501;DHT22;50874;24.150;-110.320;2023-03-25T10:27:33;18.20;92.70
64501;DHT22;50874;24.150;-110.320;2023-03-25T10:33:00;18.10;94.00
64501;DHT22;50874;24.150;-110.320;2023-03-25T10:35:31;18.00;94.60
64501;DHT22;50874;24.150;-110.320;2023-03-25T10:38:05;17.90;95.40
64501;DHT22;50874;24.150;-110.320;2023-03-25T10:40:38;17.90;96.30
64501;DHT22;50874;24.150;-110.320;2023-03-25T10:45:35;17.90;97.70
64501;DHT22;50874;24.150;-110.320;2023-03-25T10:48:24;17.90;98.10
64501;DHT22;50874;24.150;-110.320;2023-03-25T10:51:10;17.80;98.60
64501;DHT22;50874;24.150;-110.320;2023-03-25T10:53:38;17.90;99.60
64501;DHT22;50874;24.150;-110.320;2023-03-25T10:56:21;17.80;99.90
64501;DHT22;50874;24.150;-110.320;2023-03-25T10:58:53;17.70;99.90
64501;DHT22;50874;24.150;-110.320;2023-03-25T11:01:27;17.70;99.90
64501;DHT22;50874;24.150;-110.320;2023-03-25T11:03:57;17.70;99.90
64501;DHT22;50874;24.150;-110.320;2023-03-25T11:06:33;17.80;99.90
64501;DHT22;50874;24.150;-110.320;2023-03-25T11:09:22;17.80;99.90
64501;DHT22;50874;24.150;-110.320;2023-03-25T11:11:49;17.80;99.90
64501;DHT22;50874;24.150;-110.320;2023-03-25T11:14:16;17.70;99.90
64501;DHT22;50874;24.150;-110.320;2023-03-25T11:17:10;17.70;99.90
64501;DHT22;50874;24.150;-110.320;2023-03-25T11:19:59;17.50;99.90
64501;DHT22;50874;24.150;-110.320;2023-03-25T11:22:36;17.50;99.90
64501;DHT22;50874;24.150;-110.320;2023-03-25T11:25:06;17.50;99.90
64501;DHT22;50874;24.150;-110.320;2023-03-25T11:27:52;17.50;99.90
64501;DHT22;50874;24.150;-110.320;2023-03-25T11:30:22;17.50;99.90
64501;DHT22;50874;24.150;-110.320;2023-03-25T11:33:06;17.50;99.90
64501;DHT22;50874;24.150;-110.320;2023-03-25T11:35:37;17.50;99.90
64501;DHT22;50874;24.150;-110.320;2023-03-25T11:38:21;17.40;99.90
64501;DHT22;50874;24.150;-110.320;2023-03-25T11:40:58;17.40;99.90
64501;DHT22;50874;24.150;-110.320;2023-03-25T11:43:28;17.40;99.90
64501;DHT22;50874;24.150;-110.320;2023-03-25T11:45:55;17.30;99.90
64501;DHT22;50874;24.150;-110.320;2023-03-25T11:48:23;17.40;99.90
64501;DHT22;50874;24.150;-110.320;2023-03-25T11:50:58;17.40;99.90
64501;DHT22;50874;24.150;-110.320;2023-03-25T11:53:30;17.40;99.90
64501;DHT22;50874;24.150;-110.320;2023-03-25T11:56:06;17.30;99.90
64501;DHT22;50874;24.150;-110.320;2023-03-25T11:58:35;17.40;99.90
64501;DHT22;50874;24.150;-110.320;2023-03-25T12:03:46;17.40;99.90
64501;DHT22;50874;24.150;-110.320;2023-03-25T12:06:18;17.50;99.90
64501;DHT22;50874;24.150;-110.320;2023-03-25T12:08:51;17.40;99.90
64501;DHT22;50874;24.150;-110.320;2023-03-25T12:16:53;17.50;99.90
64501;DHT22;50874;24.150;-110.320;2023-03-25T12:25:10;17.50;99.90
64501;DHT22;50874;24.150;-110.320;2023-03-25T12:34:27;17.40;99.90
64501;DHT22;50874;24.150;-110.320;2023-03-25T12:56:08;17.30;99.90
64501;DHT22;50874;24.150;-110.320;2023-03-25T12:58:45;17.40;99.90
64501;DHT22;50874;24.150;-110.320;2023-03-25T13:11:52;17.30;99.90
64501;DHT22;50874;24.150;-110.320;2023-03-25T13:14:36;17.20;99.90
64501;DHT22;50874;24.150;-110.320;2023-03-25T13:17:10;17.30;99.90
64501;DHT22;50874;24.150;-110.320;2023-03-25T13:19:39;17.30;99.90
64501;DHT22;50874;24.150;-110.320;2023-03-25T13:22:22;17.30;99.90
64501;DHT22;50874;24.150;-110.320;2023-03-25T13:24:58;17.30;99.90
64501;DHT22;50874;24.150;-110.320;2023-03-25T13:27:32;17.30;99.90
64501;DHT22;50874;24.150;-110.320;2023-03-25T13:30:00;17.20;99.90
64501;DHT22;50874;24.150;-110.320;2023-03-25T13:32:34;17.20;99.90
64501;DHT22;50874;24.150;-110.320;2023-03-25T13:35:12;17.30;99.90
64501;DHT22;50874;24.150;-110.320;2023-03-25T13:37:47;17.40;99.90
64501;DHT22;50874;24.150;-110.320;2023-03-25T13:40:26;17.40;99.90
64501;DHT22;50874;24.150;-110.320;2023-03-25T13:46:11;17.40;99.90
64501;DHT22;50874;24.150;-110.320;2023-03-25T13:51:33;17.50;99.90
64501;DHT22;50874;24.150;-110.320;2023-03-25T14:00:19;17.70;99.90
64501;DHT22;50874;24.150;-110.320;2023-03-25T14:03:12;17.70;99.90
64501;DHT22;50874;24.150;-110.320;2023-03-25T14:13:35;18.00;99.90
64501;DHT22;50874;24.150;-110.320;2023-03-25T14:16:10;18.00;99.90
64501;DHT22;50874;24.150;-110.320;2023-03-25T14:18:48;18.10;99.90
64501;DHT22;50874;24.150;-110.320;2023-03-25T14:24:12;18.40;99.90
64501;DHT22;50874;24.150;-110.320;2023-03-25T14:26:58;18.60;99.90
64501;DHT22;50874;24.150;-110.320;2023-03-25T14:34:35;19.80;99.90
64501;DHT22;50874;24.150;-110.320;2023-03-25T14:37:29;20.10;99.90
64501;DHT22;50874;24.150;-110.320;2023-03-25T14:43:00;20.30;99.90
64501;DHT22;50874;24.150;-110.320;2023-03-25T14:47:57;20.70;99.90
64501;DHT22;50874;24.150;-110.320;2023-03-25T14:52:56;20.70;99.90
64501;DHT22;50874;24.150;-110.320;2023-03-25T14:55:40;20.90;99.90
64501;DHT22;50874;24.150;-110.320;2023-03-25T14:58:26;21.00;99.90
64501;DHT22;50874;24.150;-110.320;2023-03-25T15:01:10;21.50;99.90
64501;DHT22;50874;24.150;-110.320;2023-03-25T15:03:40;21.50;99.90
64501;DHT22;50874;24.150;-110.320;2023-03-25T15:06:14;21.60;99.90
64501;DHT22;50874;24.150;-110.320;2023-03-25T15:08:48;21.90;99.90
64501;DHT22;50874;24.150;-110.320;2023-03-25T15:11:17;21.90;99.90
64501;DHT22;50874;24.150;-110.320;2023-03-25T15:13:54;22.10;99.30
64501;DHT22;50874;24.150;-110.320;2023-03-25T15:26:55;22.50;98.00
64501;DHT22;50874;24.150;-110.320;2023-03-25T15:29:45;22.40;98.60
64501;DHT22;50874;24.150;-110.320;2023-03-25T15:32:46;22.60;98.30
64501;DHT22;50874;24.150;-110.320;2023-03-25T15:57:47;23.60;95.00
64501;DHT22;50874;24.150;-110.320;2023-03-25T16:00:36;23.90;95.20
64501;DHT22;50874;24.150;-110.320;2023-03-25T16:03:14;24.00;95.40
64501;DHT22;50874;24.150;-110.320;2023-03-25T16:05:53;24.40;92.90
64501;DHT22;50874;24.150;-110.320;2023-03-25T16:08:36;24.60;91.40
64501;DHT22;50874;24.150;-110.320;2023-03-25T16:13:47;25.40;91.90
64501;DHT22;50874;24.150;-110.320;2023-03-25T16:16:16;25.90;91.30
64501;DHT22;50874;24.150;-110.320;2023-03-25T16:18:44;25.90;91.20
64501;DHT22;50874;24.150;-110.320;2023-03-25T16:21:11;26.10;90.80
64501;DHT22;50874;24.150;-110.320;2023-03-25T16:23:40;25.90;89.70
64501;DHT22;50874;24.150;-110.320;2023-03-25T16:26:06;26.00;86.00
64501;DHT22;50874;24.150;-110.320;2023-03-25T16:28:38;26.40;84.60
64501;DHT22;50874;24.150;-110.320;2023-03-25T16:31:08;26.60;82.70
64501;DHT22;50874;24.150;-110.320;2023-03-25T16:33:43;26.30;81.20
64501;DHT22;50874;24.150;-110.320;2023-03-25T16:36:18;26.40;82.00
64501;DHT22;50874;24.150;-110.320;2023-03-25T16:38:45;26.80;80.60
64501;DHT22;50874;24.150;-110.320;2023-03-25T16:41:13;27.20;82.10
64501;DHT22;50874;24.150;-110.320;2023-03-25T16:43:40;27.60;82.00
64501;DHT22;50874;24.150;-110.320;2023-03-25T16:46:09;27.70;82.30
64501;DHT22;50874;24.150;-110.320;2023-03-25T16:48:41;28.60;82.00
64501;DHT22;50874;24.150;-110.320;2023-03-25T16:51:19;28.90;82.90
64501;DHT22;50874;24.150;-110.320;2023-03-25T16:53:52;29.30;81.80
64501;DHT22;50874;24.150;-110.320;2023-03-25T16:56:27;29.90;81.40
64501;DHT22;50874;24.150;-110.320;2023-03-25T16:59:00;28.10;84.40
64501;DHT22;50874;24.150;-110.320;2023-03-25T17:01:28;27.70;81.80
64501;DHT22;50874;24.150;-110.320;2023-03-25T17:04:17;27.60;82.30
64501;DHT22;50874;24.150;-110.320;2023-03-25T17:06:48;27.90;83.10
64501;DHT22;50874;24.150;-110.320;2023-03-25T17:09:20;27.70;82.00
64501;DHT22;50874;24.150;-110.320;2023-03-25T17:11:52;27.80;84.20
64501;DHT22;50874;24.150;-110.320;2023-03-25T17:14:26;28.60;81.60
64501;DHT22;50874;24.150;-110.320;2023-03-25T17:16:57;27.90;80.20
64501;DHT22;50874;24.150;-110.320;2023-03-25T17:19:27;28.20;77.60
64501;DHT22;50874;24.150;-110.320;2023-03-25T17:24:48;29.00;78.90
64501;DHT22;50874;24.150;-110.320;2023-03-25T17:27:32;29.20;80.00
64501;DHT22;50874;24.150;-110.320;2023-03-25T17:29:59;29.60;75.00
64501;DHT22;50874;24.150;-110.320;2023-03-25T17:32:42;29.60;73.90
64501;DHT22;50874;24.150;-110.320;2023-03-25T17:35:23;29.50;76.20
64501;DHT22;50874;24.150;-110.320;2023-03-25T17:37:52;29.10;74.30
64501;DHT22;50874;24.150;-110.320;2023-03-25T17:40:24;28.50;75.60
64501;DHT22;50874;24.150;-110.320;2023-03-25T17:42:55;28.50;74.90
64501;DHT22;50874;24.150;-110.320;2023-03-25T17:45:23;28.90;71.20
64501;DHT22;50874;24.150;-110.320;2023-03-25T17:47:50;29.10;74.60
64501;DHT22;50874;24.150;-110.320;2023-03-25T17:50:18;28.60;74.70
64501;DHT22;50874;24.150;-110.320;2023-03-25T17:52:45;27.90;76.20
64501;DHT22;50874;24.150;-110.320;2023-03-25T17:55:12;27.70;75.20
64501;DHT22;50874;24.150;-110.320;2023-03-25T17:57:39;27.00;76.50
64501;DHT22;50874;24.150;-110.320;2023-03-25T18:00:08;26.90;76.60
64501;DHT22;50874;24.150;-110.320;2023-03-25T18:02:47;27.80;75.30
64501;DHT22;50874;24.150;-110.320;2023-03-25T18:05:13;26.70;75.40
64501;DHT22;50874;24.150;-110.320;2023-03-25T18:07:40;27.70;75.60
64501;DHT22;50874;24.150;-110.320;2023-03-25T18:10:16;28.60;70.90